createdAt,value
2018-05-08T00:00:18.518Z,1011.61
2018-05-08T00:01:18.489Z,1011.60
2018-05-08T00:02:18.496Z,1011.57
2018-05-08T00:03:18.466Z,1011.55
2018-05-08T00:04:18.458Z,1011.56
2018-05-08T00:05:18.445Z,1011.56
2018-05-08T00:06:18.449Z,1011.55
2018-05-08T00:07:18.425Z,1011.52
2018-05-08T00:08:18.417Z,1011.49
2018-05-08T00:09:18.402Z,1011.46
2018-05-08T00:10:18.390Z,1011.50
2018-05-08T00:11:18.396Z,1011.48
2018-05-08T00:12:18.369Z,1011.42
2018-05-08T00:13:18.358Z,1011.46
2018-05-08T00:14:18.348Z,1011.41
2018-05-08T00:15:18.336Z,1011.42
2018-05-08T00:16:18.344Z,1011.45
2018-05-08T00:17:18.317Z,1011.42
2018-05-08T00:18:18.304Z,1011.40
2018-05-08T00:19:18.293Z,1011.40
2018-05-08T00:20:18.282Z,1011.40
2018-05-08T00:21:18.288Z,1011.35
2018-05-08T00:22:18.259Z,1011.34
2018-05-08T00:23:18.262Z,1011.34
2018-05-08T00:24:18.237Z,1011.30
2018-05-08T00:25:18.225Z,1011.31
2018-05-08T00:26:18.218Z,1011.30
2018-05-08T00:27:18.220Z,1011.26
2018-05-08T00:28:18.195Z,1011.27
2018-05-08T00:29:18.184Z,1011.24
2018-05-08T00:30:18.176Z,1011.25
2018-05-08T00:31:18.175Z,1011.21
2018-05-08T00:32:18.148Z,1011.24
2018-05-08T00:33:18.152Z,1011.26
2018-05-08T00:34:18.126Z,1011.24
2018-05-08T00:35:18.131Z,1011.24
2018-05-08T00:36:18.118Z,1011.22
2018-05-08T00:37:18.093Z,1011.22
2018-05-08T00:38:18.097Z,1011.21
2018-05-08T00:39:18.070Z,1011.20
2018-05-08T00:40:18.062Z,1011.23
2018-05-08T00:41:18.046Z,1011.20
2018-05-08T00:42:18.037Z,1011.18
2018-05-08T00:43:18.044Z,1011.19
2018-05-08T00:44:18.016Z,1011.18
2018-05-08T00:45:18.006Z,1011.15
2018-05-08T00:46:17.993Z,1011.17
2018-05-08T00:47:17.983Z,1011.09
2018-05-08T00:48:17.972Z,1011.13
2018-05-08T00:49:17.977Z,1011.10
2018-05-08T00:50:17.956Z,1011.10
2018-05-08T00:51:17.936Z,1011.12
2018-05-08T00:52:17.929Z,1011.09
2018-05-08T00:53:17.915Z,1011.10
2018-05-08T00:54:17.926Z,1011.12
2018-05-08T00:55:17.894Z,1011.08
2018-05-08T00:56:17.889Z,1011.06
2018-05-08T00:57:17.870Z,1011.01
2018-05-08T00:58:17.859Z,1011.02
2018-05-08T00:59:17.849Z,1011.04
2018-05-08T01:00:17.854Z,1011.01
2018-05-08T01:01:17.830Z,1010.98
2018-05-08T01:02:17.819Z,1010.99
2018-05-08T01:03:17.806Z,1010.97
2018-05-08T01:04:17.796Z,1010.97
2018-05-08T01:05:17.813Z,1010.93
2018-05-08T01:06:17.770Z,1010.93
2018-05-08T01:07:17.760Z,1010.95
2018-05-08T01:08:17.749Z,1010.92
2018-05-08T01:09:17.736Z,1010.92
2018-05-08T01:10:17.726Z,1010.91
2018-05-08T01:11:17.730Z,1010.96
2018-05-08T01:12:17.705Z,1010.92
2018-05-08T01:13:17.694Z,1010.96
2018-05-08T01:14:17.683Z,1010.94
2018-05-08T01:15:17.674Z,1010.97
2018-05-08T01:16:17.661Z,1010.94
2018-05-08T01:17:17.659Z,1010.95
2018-05-08T01:18:17.635Z,1010.96
2018-05-08T01:19:17.624Z,1010.98
2018-05-08T01:20:17.613Z,1010.98
2018-05-08T01:21:17.613Z,1010.94
2018-05-08T01:22:17.591Z,1010.94
2018-05-08T01:23:17.574Z,1010.97
2018-05-08T01:24:17.570Z,1010.90
2018-05-08T01:25:17.555Z,1010.92
2018-05-08T01:26:17.559Z,1010.88
2018-05-08T01:27:17.528Z,1010.92
2018-05-08T01:28:17.530Z,1010.91
2018-05-08T01:29:17.505Z,1010.89
2018-05-08T01:30:17.496Z,1010.90
2018-05-08T01:31:17.499Z,1010.92
2018-05-08T01:32:17.472Z,1010.93
2018-05-08T01:33:17.460Z,1010.93
2018-05-08T01:34:17.450Z,1010.95
2018-05-08T01:35:17.437Z,1010.93
2018-05-08T01:36:17.440Z,1010.93
2018-05-08T01:37:17.425Z,1010.93
2018-05-08T01:38:17.401Z,1010.91
2018-05-08T01:39:17.389Z,1010.90
2018-05-08T01:40:17.376Z,1010.90
2018-05-08T01:41:17.382Z,1010.88
2018-05-08T01:42:17.352Z,1010.87
2018-05-08T01:43:17.385Z,1010.84
2018-05-08T01:44:17.325Z,1010.81
2018-05-08T01:45:17.316Z,1010.81
2018-05-08T01:46:17.300Z,1010.80
2018-05-08T01:47:17.301Z,1010.76
2018-05-08T01:48:17.297Z,1010.76
2018-05-08T01:49:17.266Z,1010.76
2018-05-08T01:50:17.259Z,1010.75
2018-05-08T01:51:17.244Z,1010.75
2018-05-08T01:52:17.229Z,1010.74
2018-05-08T01:53:17.216Z,1010.76
2018-05-08T01:54:17.225Z,1010.68
2018-05-08T01:55:17.189Z,1010.71
2018-05-08T01:56:17.185Z,1010.67
2018-05-08T01:57:17.166Z,1010.70
2018-05-08T01:58:17.153Z,1010.68
2018-05-08T01:59:17.146Z,1010.66
2018-05-08T02:00:17.145Z,1010.68
2018-05-08T02:01:17.117Z,1010.67
2018-05-08T02:02:17.104Z,1010.64
2018-05-08T02:03:17.093Z,1010.65
2018-05-08T02:04:17.080Z,1010.65
2018-05-08T02:05:17.065Z,1010.64
2018-05-08T02:06:17.066Z,1010.64
2018-05-08T02:07:17.037Z,1010.62
2018-05-08T02:08:17.029Z,1010.58
2018-05-08T02:09:17.016Z,1010.56
2018-05-08T02:10:17.004Z,1010.55
2018-05-08T02:11:16.990Z,1010.55
2018-05-08T02:12:16.996Z,1010.54
2018-05-08T02:13:16.966Z,1010.48
2018-05-08T02:14:16.952Z,1010.48
2018-05-08T02:15:16.939Z,1010.47
2018-05-08T02:16:16.943Z,1010.47
2018-05-08T02:17:16.914Z,1010.48
2018-05-08T02:18:16.917Z,1010.42
2018-05-08T02:19:16.887Z,1010.45
2018-05-08T02:20:16.958Z,1010.45
2018-05-08T02:21:16.867Z,1010.47
2018-05-08T02:22:16.850Z,1010.42
2018-05-08T02:23:16.852Z,1010.46
2018-05-08T02:24:16.823Z,1010.42
2018-05-08T02:25:16.809Z,1010.44
2018-05-08T02:26:16.796Z,1010.42
2018-05-08T02:27:16.786Z,1010.42
2018-05-08T02:28:16.785Z,1010.44
2018-05-08T02:29:16.757Z,1010.43
2018-05-08T02:30:16.743Z,1010.45
2018-05-08T02:31:16.746Z,1010.43
2018-05-08T02:32:16.718Z,1010.46
2018-05-08T02:33:16.705Z,1010.43
2018-05-08T02:34:16.711Z,1010.44
2018-05-08T02:35:16.681Z,1010.43
2018-05-08T02:36:16.667Z,1010.44
2018-05-08T02:37:16.650Z,1010.46
2018-05-08T02:38:16.640Z,1010.41
2018-05-08T02:39:16.623Z,1010.42
2018-05-08T02:40:16.628Z,1010.41
2018-05-08T02:41:16.598Z,1010.38
2018-05-08T02:42:16.586Z,1010.38
2018-05-08T02:43:16.589Z,1010.39
2018-05-08T02:44:16.559Z,1010.39
2018-05-08T02:45:37.555Z,1010.40
2018-05-08T02:46:16.530Z,1010.44
2018-05-08T02:47:16.520Z,1010.39
2018-05-08T02:48:16.505Z,1010.43
2018-05-08T02:49:16.508Z,1010.40
2018-05-08T02:50:16.478Z,1010.38
2018-05-08T02:51:16.469Z,1010.36
2018-05-08T02:52:16.452Z,1010.39
2018-05-08T02:53:16.438Z,1010.38
2018-05-08T02:54:16.427Z,1010.32
2018-05-08T02:55:16.423Z,1010.29
2018-05-08T02:56:16.397Z,1010.36
2018-05-08T02:57:16.384Z,1010.32
2018-05-08T02:58:16.371Z,1010.35
2018-05-08T02:59:16.357Z,1010.32
2018-05-08T03:00:16.381Z,1010.33
2018-05-08T03:01:16.327Z,1010.34
2018-05-08T03:02:16.319Z,1010.36
2018-05-08T03:03:16.305Z,1010.36
2018-05-08T03:04:16.292Z,1010.34
2018-05-08T03:05:16.278Z,1010.36
2018-05-08T03:06:16.278Z,1010.33
2018-05-08T03:07:16.249Z,1010.32
2018-05-08T03:08:16.238Z,1010.32
2018-05-08T03:09:16.222Z,1010.31
2018-05-08T03:10:16.215Z,1010.33
2018-05-08T03:11:16.211Z,1010.31
2018-05-08T03:12:16.181Z,1010.30
2018-05-08T03:13:16.174Z,1010.30
2018-05-08T03:14:16.152Z,1010.29
2018-05-08T03:15:16.140Z,1010.30
2018-05-08T03:16:16.128Z,1010.31
2018-05-08T03:17:16.129Z,1010.31
2018-05-08T03:18:16.096Z,1010.27
2018-05-08T03:19:16.087Z,1010.29
2018-05-08T03:20:16.070Z,1010.26
2018-05-08T03:21:16.062Z,1010.25
2018-05-08T03:22:16.077Z,1010.28
2018-05-08T03:23:16.058Z,1010.27
2018-05-08T03:24:16.020Z,1010.28
2018-05-08T03:25:16.006Z,1010.28
2018-05-08T03:26:15.992Z,1010.25
2018-05-08T03:27:15.992Z,1010.24
2018-05-08T03:28:15.967Z,1010.25
2018-05-08T03:29:15.954Z,1010.24
2018-05-08T03:30:15.938Z,1010.24
2018-05-08T03:31:15.924Z,1010.22
2018-05-08T03:32:15.914Z,1010.25
2018-05-08T03:33:15.911Z,1010.22
2018-05-08T03:34:15.884Z,1010.25
2018-05-08T03:35:15.869Z,1010.22
2018-05-08T03:36:15.855Z,1010.19
2018-05-08T03:37:15.856Z,1010.19
2018-05-08T03:38:15.828Z,1010.17
2018-05-08T03:39:15.813Z,1010.17
2018-05-08T03:40:15.817Z,1010.19
2018-05-08T03:41:15.789Z,1010.19
2018-05-08T03:42:15.775Z,1010.20
2018-05-08T03:43:15.764Z,1010.17
2018-05-08T03:44:15.748Z,1010.17
2018-05-08T03:45:15.754Z,1010.18
2018-05-08T03:46:15.719Z,1010.15
2018-05-08T03:47:15.705Z,1010.16
2018-05-08T03:48:15.693Z,1010.13
2018-05-08T03:49:15.678Z,1010.14
2018-05-08T03:50:15.666Z,1010.15
2018-05-08T03:51:15.664Z,1010.13
2018-05-08T03:52:15.637Z,1010.09
2018-05-08T03:53:15.625Z,1010.08
2018-05-08T03:54:15.609Z,1010.10
2018-05-08T03:55:15.601Z,1010.09
2018-05-08T03:56:15.595Z,1010.07
2018-05-08T03:57:15.640Z,1010.09
2018-05-08T03:58:15.553Z,1010.07
2018-05-08T03:59:15.541Z,1010.04
2018-05-08T04:00:15.541Z,1010.01
2018-05-08T04:01:15.529Z,1010.01
2018-05-08T04:02:15.497Z,1010.02
2018-05-08T04:03:15.484Z,1010.02
2018-05-08T04:04:15.472Z,1010.00
2018-05-08T04:05:15.457Z,1010.01
2018-05-08T04:06:15.446Z,1009.99
2018-05-08T04:07:15.443Z,1010.01
2018-05-08T04:08:15.421Z,1009.96
2018-05-08T04:09:15.403Z,1009.97
2018-05-08T04:10:15.402Z,1009.97
2018-05-08T04:11:15.375Z,1009.96
2018-05-08T04:12:15.360Z,1009.97
2018-05-08T04:13:15.351Z,1009.95
2018-05-08T04:14:15.376Z,1009.96
2018-05-08T04:15:15.339Z,1009.96
2018-05-08T04:16:15.307Z,1009.96
2018-05-08T04:17:15.290Z,1009.95
2018-05-08T04:18:15.278Z,1009.95
2018-05-08T04:19:15.264Z,1009.93
2018-05-08T04:20:15.259Z,1009.91
2018-05-08T04:21:15.258Z,1009.89
2018-05-08T04:22:15.242Z,1009.90
2018-05-08T04:23:15.213Z,1009.90
2018-05-08T04:24:15.194Z,1009.90
2018-05-08T04:25:15.182Z,1009.88
2018-05-08T04:26:15.171Z,1009.91
2018-05-08T04:27:15.153Z,1009.89
2018-05-08T04:28:15.157Z,1009.86
2018-05-08T04:29:15.129Z,1009.87
2018-05-08T04:30:15.117Z,1009.86
2018-05-08T04:31:15.101Z,1009.88
2018-05-08T04:32:15.087Z,1009.83
2018-05-08T04:33:15.089Z,1009.85
2018-05-08T04:34:15.060Z,1009.82
2018-05-08T04:35:15.047Z,1009.81
2018-05-08T04:36:15.034Z,1009.81
2018-05-08T04:37:15.019Z,1009.81
2018-05-08T04:38:36.025Z,1009.83
2018-05-08T04:39:14.993Z,1009.81
2018-05-08T04:40:14.984Z,1009.79
2018-05-08T04:41:14.965Z,1009.81
2018-05-08T04:42:14.969Z,1009.79
2018-05-08T04:43:14.941Z,1009.80
2018-05-08T04:44:14.942Z,1009.80
2018-05-08T04:45:14.912Z,1009.83
2018-05-08T04:46:14.897Z,1009.84
2018-05-08T04:47:14.890Z,1009.80
2018-05-08T04:48:14.873Z,1009.81
2018-05-08T04:49:14.878Z,1009.80
2018-05-08T04:50:14.899Z,1009.82
2018-05-08T04:51:14.838Z,1009.82
2018-05-08T04:52:14.818Z,1009.82
2018-05-08T04:53:14.813Z,1009.84
2018-05-08T04:54:14.818Z,1009.84
2018-05-08T04:55:14.782Z,1009.85
2018-05-08T04:56:14.785Z,1009.83
2018-05-08T04:57:14.756Z,1009.84
2018-05-08T04:58:14.743Z,1009.83
2018-05-08T04:59:14.733Z,1009.84
2018-05-08T05:00:14.727Z,1009.84
2018-05-08T05:01:14.718Z,1009.80
2018-05-08T05:02:14.691Z,1009.82
2018-05-08T05:03:14.679Z,1009.75
2018-05-08T05:04:14.664Z,1009.78
2018-05-08T05:05:14.654Z,1009.77
2018-05-08T05:06:14.650Z,1009.73
2018-05-08T05:07:14.625Z,1009.76
2018-05-08T05:08:14.625Z,1009.77
2018-05-08T05:09:14.601Z,1009.78
2018-05-08T05:10:14.592Z,1009.79
2018-05-08T05:11:14.590Z,1009.76
2018-05-08T05:12:14.560Z,1009.77
2018-05-08T05:13:14.552Z,1009.76
2018-05-08T05:14:14.534Z,1009.76
2018-05-08T05:15:14.524Z,1009.76
2018-05-08T05:16:14.512Z,1009.73
2018-05-08T05:17:14.515Z,1009.72
2018-05-08T05:18:14.485Z,1009.73
2018-05-08T05:19:14.473Z,1009.76
2018-05-08T05:20:14.461Z,1009.73
2018-05-08T05:21:14.447Z,1009.72
2018-05-08T05:22:14.435Z,1009.76
2018-05-08T05:23:14.434Z,1009.76
2018-05-08T05:24:14.423Z,1009.72
2018-05-08T05:25:14.396Z,1009.73
2018-05-08T05:26:14.383Z,1009.73
2018-05-08T05:27:14.370Z,1009.71
2018-05-08T05:28:14.372Z,1009.76
2018-05-08T05:29:14.361Z,1009.69
2018-05-08T05:30:14.333Z,1009.73
2018-05-08T05:31:14.320Z,1009.74
2018-05-08T05:32:14.308Z,1009.73
2018-05-08T05:33:14.312Z,1009.75
2018-05-08T05:34:14.284Z,1009.79
2018-05-08T05:35:14.288Z,1009.76
2018-05-08T05:36:14.258Z,1009.77
2018-05-08T05:37:14.248Z,1009.77
2018-05-08T05:38:14.234Z,1009.80
2018-05-08T05:39:14.236Z,1009.76
2018-05-08T05:40:14.211Z,1009.76
2018-05-08T05:41:14.201Z,1009.81
2018-05-08T05:42:14.183Z,1009.74
2018-05-08T05:43:14.174Z,1009.70
2018-05-08T05:44:14.176Z,1009.76
2018-05-08T05:45:14.165Z,1009.73
2018-05-08T05:46:14.151Z,1009.71
2018-05-08T05:47:14.128Z,1009.71
2018-05-08T05:48:14.114Z,1009.72
2018-05-08T05:49:14.103Z,1009.70
2018-05-08T05:50:14.088Z,1009.69
2018-05-08T05:51:14.093Z,1009.71
2018-05-08T05:52:14.063Z,1009.73
2018-05-08T05:53:14.081Z,1009.71
2018-05-08T05:54:14.041Z,1009.68
2018-05-08T05:55:14.042Z,1009.70
2018-05-08T05:56:14.017Z,1009.68
2018-05-08T05:57:14.004Z,1009.69
2018-05-08T05:58:13.989Z,1009.70
2018-05-08T05:59:13.978Z,1009.69
2018-05-08T06:00:34.980Z,1009.67
2018-05-08T06:01:13.955Z,1009.73
2018-05-08T06:02:13.952Z,1009.70
2018-05-08T06:03:13.947Z,1009.74
2018-05-08T06:04:13.922Z,1009.67
2018-05-08T06:05:13.905Z,1009.68
2018-05-08T06:06:13.895Z,1009.69
2018-05-08T06:07:13.882Z,1009.70
2018-05-08T06:08:13.872Z,1009.67
2018-05-08T06:09:13.872Z,1009.71
2018-05-08T06:10:13.844Z,1009.68
2018-05-08T06:11:13.836Z,1009.67
2018-05-08T06:12:13.850Z,1009.69
2018-05-08T06:13:13.810Z,1009.65
2018-05-08T06:14:13.799Z,1009.62
2018-05-08T06:15:13.783Z,1009.65
2018-05-08T06:16:13.771Z,1009.63
2018-05-08T06:17:13.758Z,1009.63
2018-05-08T06:18:13.765Z,1009.61
2018-05-08T06:19:13.737Z,1009.61
2018-05-08T06:20:13.744Z,1009.59
2018-05-08T06:21:13.713Z,1009.59
2018-05-08T06:22:13.700Z,1009.59
2018-05-08T06:23:13.687Z,1009.60
2018-05-08T06:24:13.675Z,1009.60
2018-05-08T06:25:13.677Z,1009.57
2018-05-08T06:26:13.650Z,1009.57
2018-05-08T06:27:13.641Z,1009.62
2018-05-08T06:28:13.627Z,1009.60
2018-05-08T06:29:13.614Z,1009.59
2018-05-08T06:30:13.619Z,1009.58
2018-05-08T06:31:13.593Z,1009.60
2018-05-08T06:32:13.589Z,1009.60
2018-05-08T06:33:13.572Z,1009.57
2018-05-08T06:34:13.556Z,1009.57
2018-05-08T06:35:13.563Z,1009.56
2018-05-08T06:36:13.534Z,1009.56
2018-05-08T06:37:13.524Z,1009.57
2018-05-08T06:38:13.523Z,1009.59
2018-05-08T06:39:13.543Z,1009.53
2018-05-08T06:40:13.488Z,1009.54
2018-05-08T06:41:13.474Z,1009.53
2018-05-08T06:42:13.464Z,1009.47
2018-05-08T06:43:13.448Z,1009.48
2018-05-08T06:44:13.495Z,1009.50
2018-05-08T06:45:13.506Z,1009.49
2018-05-08T06:46:13.431Z,1009.49
2018-05-08T06:47:13.407Z,1009.47
2018-05-08T06:48:13.395Z,1009.47
2018-05-08T06:49:13.380Z,1009.48
2018-05-08T06:50:14.372Z,1009.43
2018-05-08T06:51:13.374Z,1009.41
2018-05-08T06:52:13.362Z,1009.39
2018-05-08T06:53:13.338Z,1009.44
2018-05-08T06:54:13.325Z,1009.46
2018-05-08T06:55:13.313Z,1009.42
2018-05-08T06:56:13.303Z,1009.45
2018-05-08T06:57:13.290Z,1009.44
2018-05-08T06:58:13.299Z,1009.44
2018-05-08T06:59:13.282Z,1009.45
2018-05-08T07:00:13.256Z,1009.41
2018-05-08T07:01:13.262Z,1009.41
2018-05-08T07:02:13.233Z,1009.42
2018-05-08T07:03:13.220Z,1009.43
2018-05-08T07:04:13.213Z,1009.38
2018-05-08T07:05:13.215Z,1009.35
2018-05-08T07:06:13.183Z,1009.34
2018-05-08T07:07:13.175Z,1009.31
2018-05-08T07:08:13.180Z,1009.40
2018-05-08T07:09:13.193Z,1009.43
2018-05-08T07:10:13.143Z,1009.40
2018-05-08T07:11:13.145Z,1009.39
2018-05-08T07:12:13.800Z,1009.39
2018-05-08T07:13:13.131Z,1009.39
2018-05-08T07:14:13.100Z,1009.37
2018-05-08T07:15:13.118Z,1009.37
2018-05-08T07:16:13.289Z,1009.38
2018-05-08T07:17:13.135Z,1009.40
2018-05-08T07:18:13.082Z,1009.42
2018-05-08T07:19:13.120Z,1009.50
2018-05-08T07:20:13.034Z,1009.46
2018-05-08T07:21:13.018Z,1009.34
2018-05-08T07:22:13.009Z,1009.34
2018-05-08T07:23:13.027Z,1009.38
2018-05-08T07:24:12.988Z,1009.41
2018-05-08T07:25:12.993Z,1009.33
2018-05-08T07:26:12.968Z,1009.33
2018-05-08T07:27:12.961Z,1009.33
2018-05-08T07:28:12.945Z,1010.29
2018-05-08T07:29:12.936Z,1009.41
2018-05-08T07:30:12.944Z,1009.34
2018-05-08T07:31:12.916Z,1009.31
2018-05-08T07:32:12.904Z,1009.27
2018-05-08T07:33:12.900Z,1009.28
2018-05-08T07:34:12.897Z,1009.27
2018-05-08T07:35:12.878Z,1009.30
2018-05-08T07:36:12.860Z,1009.32
2018-05-08T07:37:12.854Z,1009.23
2018-05-08T07:38:12.923Z,1009.23
2018-05-08T07:39:12.833Z,1009.25
2018-05-08T07:40:12.818Z,1009.27
2018-05-08T07:41:12.833Z,1009.24
2018-05-08T07:42:12.806Z,1009.26
2018-05-08T07:43:12.809Z,1009.24
2018-05-08T07:44:12.779Z,1009.22
2018-05-08T07:45:12.774Z,1009.23
2018-05-08T07:46:12.765Z,1009.22
2018-05-08T07:47:12.774Z,1009.23
2018-05-08T07:48:12.739Z,1009.22
2018-05-08T07:49:12.732Z,1009.26
2018-05-08T07:50:12.723Z,1009.24
2018-05-08T07:51:12.708Z,1009.24
2018-05-08T07:52:12.718Z,1009.21
2018-05-08T07:53:12.691Z,1009.21
2018-05-08T07:54:12.681Z,1009.23
2018-05-08T07:55:12.684Z,1009.23
2018-05-08T07:56:12.661Z,1009.23
2018-05-08T07:57:12.664Z,1009.18
2018-05-08T07:58:12.641Z,1009.25
2018-05-08T07:59:12.631Z,1009.24
2018-05-08T08:00:12.623Z,1009.19
2018-05-08T08:01:12.630Z,1009.19
2018-05-08T08:02:12.605Z,1009.19
2018-05-08T08:03:12.611Z,1009.16
2018-05-08T08:04:12.579Z,1009.18
2018-05-08T08:05:12.575Z,1009.17
2018-05-08T08:06:12.580Z,1009.17
2018-05-08T08:07:12.565Z,1009.15
2018-05-08T08:08:12.542Z,1009.13
2018-05-08T08:09:12.535Z,1009.16
2018-05-08T08:10:12.519Z,1009.15
2018-05-08T08:11:12.514Z,1009.16
2018-05-08T08:12:12.517Z,1009.10
2018-05-08T08:13:12.505Z,1009.11
2018-05-08T08:14:12.479Z,1009.16
2018-05-08T08:15:12.477Z,1009.11
2018-05-08T08:16:12.465Z,1009.14
2018-05-08T08:17:12.475Z,1009.13
2018-05-08T08:18:12.442Z,1009.08
2018-05-08T08:19:12.435Z,1009.09
2018-05-08T08:20:12.423Z,1009.13
2018-05-08T08:21:12.415Z,1009.13
2018-05-08T08:22:12.405Z,1009.09
2018-05-08T08:23:12.410Z,1009.05
2018-05-08T08:24:12.385Z,1009.09
2018-05-08T08:25:12.375Z,1009.10
2018-05-08T08:26:12.364Z,1009.06
2018-05-08T08:27:12.354Z,1009.08
2018-05-08T08:28:12.364Z,1009.04
2018-05-08T08:29:12.335Z,1009.05
2018-05-08T08:30:12.330Z,1009.05
2018-05-08T08:31:12.325Z,1009.06
2018-05-08T08:32:12.310Z,1009.03
2018-05-08T08:33:12.312Z,1009.04
2018-05-08T08:34:12.293Z,1009.02
2018-05-08T08:35:12.280Z,1009.01
2018-05-08T08:36:12.270Z,1009.01
2018-05-08T08:37:12.259Z,1009.03
2018-05-08T08:38:12.250Z,1009.03
2018-05-08T08:39:12.256Z,1009.01
2018-05-08T08:40:12.235Z,1009.02
2018-05-08T08:41:12.228Z,1009.01
2018-05-08T08:42:12.210Z,1009.01
2018-05-08T08:43:12.207Z,1009.03
2018-05-08T08:44:12.218Z,1009.00
2018-05-08T08:45:12.184Z,1009.04
2018-05-08T08:46:12.177Z,1008.99
2018-05-08T08:47:12.169Z,1009.09
2018-05-08T08:48:12.161Z,1008.96
2018-05-08T08:49:12.158Z,1008.94
2018-05-08T08:50:12.158Z,1008.96
2018-05-08T08:51:12.133Z,1008.92
2018-05-08T08:52:12.127Z,1008.91
2018-05-08T08:53:12.122Z,1008.93
2018-05-08T08:54:12.103Z,1008.96
2018-05-08T08:55:12.118Z,1008.92
2018-05-08T08:56:12.090Z,1008.87
2018-05-08T08:57:12.096Z,1008.94
2018-05-08T08:58:12.082Z,1008.94
2018-05-08T08:59:12.068Z,1008.91
2018-05-08T09:00:12.053Z,1008.93
2018-05-08T09:01:12.064Z,1008.93
2018-05-08T09:02:12.034Z,1008.87
2018-05-08T09:03:12.030Z,1008.91
2018-05-08T09:04:12.037Z,1008.89
2018-05-08T09:05:12.012Z,1008.93
2018-05-08T09:06:12.000Z,1008.86
2018-05-08T09:07:12.009Z,1008.87
2018-05-08T09:08:11.995Z,1008.81
2018-05-08T09:09:11.977Z,1008.79
2018-05-08T09:10:11.969Z,1008.82
2018-05-08T09:11:12.005Z,1008.76
2018-05-08T09:12:11.953Z,1008.69
2018-05-08T09:13:11.963Z,1008.74
2018-05-08T09:14:11.935Z,1008.76
2018-05-08T09:15:11.927Z,1008.71
2018-05-08T09:16:11.926Z,1008.76
2018-05-08T09:17:11.918Z,1008.77
2018-05-08T09:18:11.903Z,1008.78
2018-05-08T09:19:11.920Z,1008.69
2018-05-08T09:20:11.894Z,1008.55
2018-05-08T09:21:11.878Z,1008.29
2018-05-08T09:22:11.891Z,1007.92
2018-05-08T09:23:12.484Z,1007.65
2018-05-08T09:24:11.859Z,1007.57
2018-05-08T09:25:11.854Z,1007.39
2018-05-08T09:26:11.848Z,1007.12
2018-05-08T09:27:11.847Z,1007.09
2018-05-08T09:28:11.842Z,1007.07
2018-05-08T09:29:11.821Z,1006.78
2018-05-08T09:30:32.829Z,1007.08
2018-05-08T09:31:11.808Z,1007.08
2018-05-08T09:32:11.809Z,1006.77
2018-05-08T09:33:11.800Z,1006.84
2018-05-08T09:34:11.798Z,1006.95
2018-05-08T09:35:11.792Z,1007.01
2018-05-08T09:36:11.803Z,1007.31
2018-05-08T09:37:11.861Z,1007.40
2018-05-08T09:38:11.786Z,1007.49
2018-05-08T09:39:11.779Z,1007.67
2018-05-08T09:40:11.773Z,1007.86
2018-05-08T09:41:11.786Z,1007.98
2018-05-08T09:42:11.770Z,1008.06
2018-05-08T09:43:11.768Z,1008.14
2018-05-08T09:44:11.785Z,1008.33
2018-05-08T09:45:11.765Z,1008.45
2018-05-08T09:46:11.785Z,1008.46
2018-05-08T09:47:11.765Z,1008.60
2018-05-08T09:48:11.762Z,1008.56
2018-05-08T09:49:11.776Z,1008.61
2018-05-08T09:50:11.759Z,1008.62
2018-05-08T09:51:11.762Z,1008.67
2018-05-08T09:52:11.775Z,1008.65
2018-05-08T09:53:11.761Z,1008.65
2018-05-08T09:54:11.809Z,1008.61
2018-05-08T09:55:11.764Z,1008.66
2018-05-08T09:56:11.761Z,1008.66
2018-05-08T09:57:11.762Z,1008.63
2018-05-08T09:58:11.775Z,1008.61
2018-05-08T09:59:11.764Z,1008.63
2018-05-08T10:00:11.765Z,1008.65
2018-05-08T10:01:11.786Z,1008.70
2018-05-08T10:02:11.767Z,1008.67
2018-05-08T10:03:11.775Z,1008.69
2018-05-08T10:04:11.769Z,1008.64
2018-05-08T10:05:11.763Z,1008.67
2018-05-08T10:06:11.784Z,1008.61
2018-05-08T10:07:11.770Z,1008.61
2018-05-08T10:08:11.772Z,1008.52
2018-05-08T10:09:11.776Z,1008.53
2018-05-08T10:10:11.779Z,1008.53
2018-05-08T10:11:11.791Z,1008.55
2018-05-08T10:12:11.796Z,1008.53
2018-05-08T10:13:11.781Z,1008.55
2018-05-08T10:14:11.785Z,1008.54
2018-05-08T10:15:11.786Z,1008.50
2018-05-08T10:16:11.790Z,1008.50
2018-05-08T10:17:11.804Z,1008.48
2018-05-08T10:18:11.793Z,1008.49
2018-05-08T10:19:11.798Z,1008.49
2018-05-08T10:20:11.814Z,1008.45
2018-05-08T10:21:11.800Z,1008.43
2018-05-08T10:22:11.802Z,1008.44
2018-05-08T10:23:11.806Z,1008.38
2018-05-08T10:24:11.823Z,1008.34
2018-05-08T10:25:11.810Z,1008.33
2018-05-08T10:26:11.813Z,1008.31
2018-05-08T10:27:11.818Z,1008.34
2018-05-08T10:28:11.833Z,1008.26
2018-05-08T10:29:11.821Z,1008.30
2018-05-08T10:30:11.825Z,1008.27
2018-05-08T10:31:11.840Z,1008.24
2018-05-08T10:32:11.830Z,1008.25
2018-05-08T10:33:11.834Z,1008.20
2018-05-08T10:34:11.836Z,1008.22
2018-05-08T10:35:11.855Z,1008.21
2018-05-08T10:36:11.858Z,1008.18
2018-05-08T10:37:11.845Z,1008.16
2018-05-08T10:38:11.847Z,1008.16
2018-05-08T10:39:11.852Z,1008.12
2018-05-08T10:40:11.875Z,1008.13
2018-05-08T10:41:11.853Z,1008.14
2018-05-08T10:42:11.862Z,1008.12
2018-05-08T10:43:11.867Z,1008.13
2018-05-08T10:44:11.884Z,1008.15
2018-05-08T10:45:11.873Z,1008.08
2018-05-08T10:46:11.889Z,1008.09
2018-05-08T10:47:11.879Z,1008.08
2018-05-08T10:48:11.883Z,1008.08
2018-05-08T10:49:11.887Z,1008.04
2018-05-08T10:50:11.903Z,1007.98
2018-05-08T10:51:11.912Z,1008.00
2018-05-08T10:52:11.897Z,1008.03
2018-05-08T10:53:11.898Z,1008.01
2018-05-08T10:54:11.909Z,1008.00
2018-05-08T10:55:11.923Z,1007.99
2018-05-08T10:56:11.917Z,1007.95
2018-05-08T10:57:11.922Z,1007.94
2018-05-08T10:58:11.924Z,1007.97
2018-05-08T10:59:11.926Z,1007.88
2018-05-08T11:00:11.942Z,1007.90
2018-05-08T11:01:11.935Z,1007.87
2018-05-08T11:02:11.941Z,1007.91
2018-05-08T11:03:11.960Z,1007.90
2018-05-08T11:04:11.950Z,1007.91
2018-05-08T11:05:11.955Z,1007.87
2018-05-08T11:06:11.972Z,1007.89
2018-05-08T11:07:11.976Z,1007.86
2018-05-08T11:08:11.965Z,1007.89
2018-05-08T11:09:11.969Z,1007.83
2018-05-08T11:10:11.974Z,1007.92
2018-05-08T11:11:11.980Z,1007.85
2018-05-08T11:12:12.001Z,1007.81
2018-05-08T11:13:11.988Z,1007.80
2018-05-08T11:14:11.991Z,1007.80
2018-05-08T11:15:11.999Z,1007.78
2018-05-08T11:16:12.001Z,1007.75
2018-05-08T11:17:12.013Z,1007.73
2018-05-08T11:18:12.026Z,1007.70
2018-05-08T11:19:12.016Z,1007.67
2018-05-08T11:20:12.021Z,1007.71
2018-05-08T11:21:12.023Z,1007.74
2018-05-08T11:22:12.027Z,1007.62
2018-05-08T11:23:12.046Z,1007.58
2018-05-08T11:24:12.037Z,1007.59
2018-05-08T11:25:12.043Z,1007.58
2018-05-08T11:26:12.062Z,1007.60
2018-05-08T11:27:12.052Z,1007.58
2018-05-08T11:28:12.055Z,1007.58
2018-05-08T11:29:12.061Z,1007.55
2018-05-08T11:30:12.065Z,1007.59
2018-05-08T11:31:12.088Z,1007.52
2018-05-08T11:32:12.076Z,1007.50
2018-05-08T11:33:12.077Z,1007.54
2018-05-08T11:34:12.083Z,1007.49
2018-05-08T11:35:12.086Z,1007.56
2018-05-08T11:36:12.105Z,1007.52
2018-05-08T11:37:12.094Z,1007.53
2018-05-08T11:38:12.100Z,1007.43
2018-05-08T11:39:12.222Z,1007.45
2018-05-08T11:40:12.110Z,1007.45
2018-05-08T11:41:12.112Z,1007.45
2018-05-08T11:42:12.113Z,1007.43
2018-05-08T11:43:12.126Z,1007.44
2018-05-08T11:44:12.126Z,1007.44
2018-05-08T11:45:12.209Z,1007.39
2018-05-08T11:46:12.135Z,1007.41
2018-05-08T11:47:12.155Z,1007.43
2018-05-08T11:48:12.144Z,1007.44
2018-05-08T11:49:12.145Z,1007.45
2018-05-08T11:50:12.154Z,1007.43
2018-05-08T11:51:12.155Z,1007.40
2018-05-08T11:52:12.174Z,1007.30
2018-05-08T11:53:12.166Z,1007.37
2018-05-08T11:54:12.168Z,1007.37
2018-05-08T11:55:12.189Z,1007.38
2018-05-08T11:56:12.176Z,1007.36
2018-05-08T11:57:12.179Z,1007.35
2018-05-08T11:58:12.182Z,1007.33
2018-05-08T11:59:12.189Z,1007.29
2018-05-08T12:00:12.212Z,1007.28
2018-05-08T12:01:12.196Z,1007.26
2018-05-08T12:02:12.203Z,1007.28
2018-05-08T12:03:12.227Z,1007.29
2018-05-08T12:04:12.213Z,1007.27
2018-05-08T12:05:13.881Z,1007.31